Time,TemperatureF,DewpointF,PressureIn,WindDirection,WindDirectionDegrees,WindSpeedMPH,WindSpeedGustMPH,Humidity,HourlyPrecipIn,Conditions,Clouds,dailyrainin,SoftwareType,DateUTC
2013-10-16 00:00:00,27.0,-99.9,-100.00,WSW,242,5.0,5.0,-999,-99.99,,,-99.99,,2013-10-16 06:00:00,
2013-10-16 00:43:00,27.0,-99.9,-100.00,WSW,242,5.0,5.0,-999,-99.99,,,-99.99,,2013-10-16 06:43:00,
2013-10-16 00:52:00,27.0,-99.9,-100.00,WSW,242,5.0,5.0,-999,-99.99,,,-99.99,,2013-10-16 06:52:00,
2013-10-16 01:00:00,27.0,-99.9,-100.00,WSW,240,5.0,5.0,-999,-99.99,,,-99.99,,2013-10-16 07:00:00,
2013-10-16 01:42:00,27.0,-99.9,-100.00,WSW,240,5.0,5.0,-999,-99.99,,,-99.99,,2013-10-16 07:42:00,
2013-10-16 01:53:00,27.0,-99.9,-100.00,WSW,240,5.0,5.0,-999,-99.99,,,-99.99,,2013-10-16 07:53:00,
2013-10-16 02:00:00,26.0,-99.9,-100.00,SW,233,6.0,7.0,-999,-99.99,,,-99.99,,2013-10-16 08:00:00,
2013-10-16 02:42:00,26.0,-99.9,-100.00,SW,233,6.0,7.0,-999,-99.99,,,-99.99,,2013-10-16 08:42:00,
2013-10-16 02:52:00,26.0,-99.9,-100.00,SW,233,6.0,7.0,-999,-99.99,,,-99.99,,2013-10-16 08:52:00,
2013-10-16 03:00:00,27.0,-99.9,-100.00,WSW,255,5.0,6.0,-999,-99.99,,,-99.99,,2013-10-16 09:00:00,
2013-10-16 03:43:00,27.0,-99.9,-100.00,WSW,255,5.0,6.0,-999,-99.99,,,-99.99,,2013-10-16 09:43:00,
2013-10-16 03:54:00,27.0,-99.9,-100.00,WSW,255,5.0,6.0,-999,-99.99,,,-99.99,,2013-10-16 09:54:00,
2013-10-16 04:00:00,23.0,-99.9,-100.00,SSW,211,6.0,7.0,-999,-99.99,,,-99.99,,2013-10-16 10:00:00,
2013-10-16 04:42:00,23.0,-99.9,-100.00,SSW,211,6.0,7.0,-999,-99.99,,,-99.99,,2013-10-16 10:42:00,
2013-10-16 04:53:00,23.0,-99.9,-100.00,SSW,211,6.0,7.0,-999,-99.99,,,-99.99,,2013-10-16 10:53:00,
2013-10-16 05:00:00,24.0,-99.9,-100.00,WSW,250,4.0,5.0,-999,-99.99,,,-99.99,,2013-10-16 11:00:00,
2013-10-16 05:43:00,24.0,-99.9,-100.00,WSW,250,4.0,5.0,-999,-99.99,,,-99.99,,2013-10-16 11:43:00,
2013-10-16 05:52:00,24.0,-99.9,-100.00,WSW,250,4.0,5.0,-999,-99.99,,,-99.99,,2013-10-16 11:52:00,
2013-10-16 06:00:00,23.0,-99.9,-100.00,WSW,250,4.0,5.0,-999,-99.99,,,-99.99,,2013-10-16 12:00:00,
2013-10-16 06:43:00,23.0,-99.9,-100.00,WSW,250,4.0,5.0,-999,-99.99,,,-99.99,,2013-10-16 12:43:00,
2013-10-16 06:52:00,23.0,-99.9,-100.00,WSW,250,4.0,5.0,-999,-99.99,,,-99.99,,2013-10-16 12:52:00,
2013-10-16 07:00:00,25.0,-99.9,-100.00,WSW,246,3.0,4.0,-999,-99.99,,,-99.99,,2013-10-16 13:00:00,
2013-10-16 07:42:00,25.0,-99.9,-100.00,WSW,246,3.0,4.0,-999,-99.99,,,-99.99,,2013-10-16 13:42:00,
2013-10-16 07:53:00,25.0,-99.9,-100.00,WSW,246,3.0,4.0,-999,-99.99,,,-99.99,,2013-10-16 13:53:00,
2013-10-16 08:00:00,26.0,-99.9,-100.00,SSW,211,2.0,3.0,-999,-99.99,,,-99.99,,2013-10-16 14:00:00,
2013-10-16 08:42:00,26.0,-99.9,-100.00,SSW,211,2.0,3.0,-999,-99.99,,,-99.99,,2013-10-16 14:42:00,
2013-10-16 08:52:00,26.0,-99.9,-100.00,SSW,211,2.0,3.0,-999,-99.99,,,-99.99,,2013-10-16 14:52:00,
2013-10-16 09:00:00,34.0,-99.9,-100.00,East,100,0.0,2.0,-999,-99.99,,,-99.99,,2013-10-16 15:00:00,
2013-10-16 09:44:00,34.0,-99.9,-100.00,East,100,0.0,2.0,-999,-99.99,,,-99.99,,2013-10-16 15:44:00,
2013-10-16 09:53:00,34.0,-99.9,-100.00,East,100,0.0,2.0,-999,-99.99,,,-99.99,,2013-10-16 15:53:00,
2013-10-16 10:00:00,35.0,-99.9,-100.00,NE,40,3.0,5.0,-999,-99.99,,,-99.99,,2013-10-16 16:00:00,
2013-10-16 10:42:00,35.0,-99.9,-100.00,NE,40,3.0,5.0,-999,-99.99,,,-99.99,,2013-10-16 16:42:00,
2013-10-16 10:53:00,35.0,-99.9,-100.00,NE,40,3.0,5.0,-999,-99.99,,,-99.99,,2013-10-16 16:53:00,
2013-10-16 11:00:00,39.0,-99.9,-100.00,North,352,6.0,7.0,-999,-99.99,,,-99.99,,2013-10-16 17:00:00,
2013-10-16 11:22:00,39.0,-99.9,-100.00,North,352,6.0,7.0,-999,-99.99,,,-99.99,,2013-10-16 17:22:00,
2013-10-16 11:33:00,39.0,-99.9,-100.00,North,352,6.0,7.0,-999,-99.99,,,-99.99,,2013-10-16 17:33:00,
2013-10-16 11:43:00,39.0,-99.9,-100.00,North,352,6.0,7.0,-999,-99.99,,,-99.99,,2013-10-16 17:43:00,
2013-10-16 11:52:00,39.0,-99.9,-100.00,North,352,6.0,7.0,-999,-99.99,,,-99.99,,2013-10-16 17:52:00,
2013-10-16 12:00:00,42.0,-99.9,-100.00,North,349,4.0,6.0,-999,-99.99,,,-99.99,,2013-10-16 18:00:00,
2013-10-16 12:42:00,42.0,-99.9,-100.00,North,349,4.0,6.0,-999,-99.99,,,-99.99,,2013-10-16 18:42:00,
2013-10-16 12:52:00,42.0,-99.9,-100.00,North,349,4.0,6.0,-999,-99.99,,,-99.99,,2013-10-16 18:52:00,
2013-10-16 13:00:00,44.0,-99.9,-100.00,NNE,15,3.0,6.0,-999,-99.99,,,-99.99,,2013-10-16 19:00:00,
2013-10-16 13:22:00,44.0,-99.9,-100.00,NNE,15,3.0,6.0,-999,-99.99,,,-99.99,,2013-10-16 19:22:00,
2013-10-16 13:32:00,44.0,-99.9,-100.00,NNE,15,3.0,6.0,-999,-99.99,,,-99.99,,2013-10-16 19:32:00,
2013-10-16 13:42:00,44.0,-99.9,-100.00,NNE,15,3.0,6.0,-999,-99.99,,,-99.99,,2013-10-16 19:42:00,
2013-10-16 13:52:00,44.0,-99.9,-100.00,NNE,15,3.0,6.0,-999,-99.99,,,-99.99,,2013-10-16 19:52:00,
2013-10-16 14:00:00,46.0,-99.9,-100.00,NNE,16,2.0,4.0,-999,-99.99,,,-99.99,,2013-10-16 20:00:00,
2013-10-16 14:22:00,46.0,-99.9,-100.00,NNE,16,2.0,4.0,-999,-99.99,,,-99.99,,2013-10-16 20:22:00,
2013-10-16 14:32:00,46.0,-99.9,-100.00,NNE,16,2.0,4.0,-999,-99.99,,,-99.99,,2013-10-16 20:32:00,
2013-10-16 14:43:00,46.0,-99.9,-100.00,NNE,16,2.0,4.0,-999,-99.99,,,-99.99,,2013-10-16 20:43:00,
2013-10-16 14:52:00,46.0,-99.9,-100.00,NNE,16,2.0,4.0,-999,-99.99,,,-99.99,,2013-10-16 20:52:00,
2013-10-16 15:00:00,46.0,-99.9,-100.00,ENE,58,5.0,6.0,-999,-99.99,,,-99.99,,2013-10-16 21:00:00,
2013-10-16 15:23:00,46.0,-99.9,-100.00,ENE,58,5.0,6.0,-999,-99.99,,,-99.99,,2013-10-16 21:23:00,
2013-10-16 15:34:00,46.0,-99.9,-100.00,ENE,58,5.0,6.0,-999,-99.99,,,-99.99,,2013-10-16 21:34:00,
2013-10-16 15:44:00,46.0,-99.9,-100.00,ENE,58,5.0,6.0,-999,-99.99,,,-99.99,,2013-10-16 21:44:00,
2013-10-16 15:54:00,46.0,-99.9,-100.00,ENE,58,5.0,6.0,-999,-99.99,,,-99.99,,2013-10-16 21:54:00,
2013-10-16 16:00:00,45.0,-99.9,-100.00,NNE,25,9.0,11.0,-999,-99.99,,,-99.99,,2013-10-16 22:00:00,
2013-10-16 16:42:00,45.0,-99.9,-100.00,NNE,25,9.0,11.0,-999,-99.99,,,-99.99,,2013-10-16 22:42:00,
2013-10-16 16:54:00,45.0,-99.9,-100.00,NNE,25,9.0,11.0,-999,-99.99,,,-99.99,,2013-10-16 22:54:00,
2013-10-16 17:00:00,44.0,-99.9,-100.00,North,352,3.0,5.0,-999,-99.99,,,-99.99,,2013-10-16 23:00:00,
2013-10-16 17:42:00,44.0,-99.9,-100.00,North,352,3.0,5.0,-999,-99.99,,,-99.99,,2013-10-16 23:42:00,
2013-10-16 17:53:00,44.0,-99.9,-100.00,North,352,3.0,5.0,-999,-99.99,,,-99.99,,2013-10-16 23:53:00,
2013-10-16 18:00:00,45.0,-99.9,-100.00,WNW,299,1.0,3.0,-999,-99.99,,,-99.99,,2013-10-17 00:00:00,
2013-10-16 18:42:00,45.0,-99.9,-100.00,WNW,299,1.0,3.0,-999,-99.99,,,-99.99,,2013-10-17 00:42:00,
2013-10-16 18:52:00,45.0,-99.9,-100.00,WNW,299,1.0,3.0,-999,-99.99,,,-99.99,,2013-10-17 00:52:00,
2013-10-16 19:00:00,40.0,-99.9,-100.00,NE,39,5.0,7.0,-999,-99.99,,,-99.99,,2013-10-17 01:00:00,
2013-10-16 19:43:00,40.0,-99.9,-100.00,NE,39,5.0,7.0,-999,-99.99,,,-99.99,,2013-10-17 01:43:00,
2013-10-16 19:53:00,40.0,-99.9,-100.00,NE,39,5.0,7.0,-999,-99.99,,,-99.99,,2013-10-17 01:53:00,
2013-10-16 20:00:00,37.0,-99.9,-100.00,WSW,240,3.0,4.0,-999,-99.99,,,-99.99,,2013-10-17 02:00:00,
2013-10-16 20:53:00,37.0,-99.9,-100.00,WSW,240,3.0,4.0,-999,-99.99,,,-99.99,,2013-10-17 02:53:00,
2013-10-16 21:00:00,36.0,-99.9,-100.00,SW,226,4.0,5.0,-999,-99.99,,,-99.99,,2013-10-17 03:00:00,
2013-10-16 21:22:00,36.0,-99.9,-100.00,SW,226,4.0,5.0,-999,-99.99,,,-99.99,,2013-10-17 03:22:00,
2013-10-16 21:34:00,36.0,-99.9,-100.00,SW,226,4.0,5.0,-999,-99.99,,,-99.99,,2013-10-17 03:34:00,
2013-10-16 21:45:00,36.0,-99.9,-100.00,SW,226,4.0,5.0,-999,-99.99,,,-99.99,,2013-10-17 03:45:00,
2013-10-16 21:54:00,36.0,-99.9,-100.00,SW,226,4.0,5.0,-999,-99.99,,,-99.99,,2013-10-17 03:54:00,
2013-10-16 22:00:00,38.0,-99.9,-100.00,WSW,247,4.0,5.0,-999,-99.99,,,-99.99,,2013-10-17 04:00:00,
2013-10-16 22:43:00,38.0,-99.9,-100.00,WSW,247,4.0,5.0,-999,-99.99,,,-99.99,,2013-10-17 04:43:00,
2013-10-16 22:54:00,38.0,-99.9,-100.00,WSW,247,4.0,5.0,-999,-99.99,,,-99.99,,2013-10-17 04:54:00,
2013-10-16 23:00:00,36.0,-99.9,-100.00,NE,51,5.0,7.0,-999,-99.99,,,-99.99,,2013-10-17 05:00:00,
2013-10-16 23:42:00,36.0,-99.9,-100.00,NE,51,5.0,7.0,-999,-99.99,,,-99.99,,2013-10-17 05:42:00,
2013-10-16 23:52:00,36.0,-99.9,-100.00,NE,51,5.0,7.0,-999,-99.99,,,-99.99,,2013-10-17 05:52:00,